Time;durP1;ratioP1;P1;durP2;ratioP2;P2;SDS_P1;SDS_P2;PMS_P1;PMS_P2;Temp;Humidity;BMP_temperature;BMP_pressure;BME280_temperature;BME280_humidity;BME280_pressure;Samples;Min_cycle;Max_cycle;Signal;HPM_P1;HPM_P2
2021/11/08 00:01:23;;;;;;;7.97;1.60;;;;;;;;;;5013397;28;20426;-84
2021/11/08 00:03:52;;;;;;;6.03;1.10;;;;;;;;;;5013457;28;20481;-85
2021/11/08 00:06:19;;;;;;;6.07;1.65;;;;;;;;;;5013378;28;20045;-85
2021/11/08 00:08:45;;;;;;;7.57;1.00;;;;;;;;;;5014447;28;20052;-84
2021/11/08 00:11:12;;;;;;;5.75;1.23;;;;;;;;;;5013675;28;20049;-85
2021/11/08 00:13:38;;;;;;;6.03;1.33;;;;;;;;;;5012954;28;20116;-84
2021/11/08 00:21:36;;;;;;;8.88;1.35;;;;;;;;;;5029725;28;19928;-84
2021/11/08 00:24:02;;;;;;;7.40;1.60;;;;;;;;;;5014598;28;20056;-83
2021/11/08 00:26:28;;;;;;;4.85;1.40;;;;;;;;;;5030001;28;20112;-84
2021/11/08 00:28:55;;;;;;;5.95;1.20;;;;;;;;;;5029891;28;20048;-85
2021/11/08 00:31:21;;;;;;;9.80;1.58;;;;;;;;;;5029100;28;20045;-84
2021/11/08 00:33:47;;;;;;;8.15;1.50;;;;;;;;;;5014083;28;20084;-84
2021/11/08 00:36:13;;;;;;;6.85;1.33;;;;;;;;;;5030284;28;20102;-84
2021/11/08 00:38:39;;;;;;;10.10;1.58;;;;;;;;;;5012135;28;20047;-84
2021/11/08 00:41:05;;;;;;;8.25;1.73;;;;;;;;;;5013595;28;20049;-84
2021/11/08 00:43:32;;;;;;;5.38;1.40;;;;;;;;;;5013144;28;20047;-83
2021/11/08 00:45:59;;;;;;;9.30;1.75;;;;;;;;;;5037346;28;20044;-84
2021/11/08 00:48:30;;;;;;;10.15;1.60;;;;;;;;;;5012576;28;20136;-83
2021/11/08 00:50:56;;;;;;;9.13;1.42;;;;;;;;;;5029749;28;20045;-84
2021/11/08 00:53:22;;;;;;;10.65;1.55;;;;;;;;;;5029146;28;20072;-84
2021/11/08 00:55:49;;;;;;;10.27;2.00;;;;;;;;;;5013491;28;20053;-84
2021/11/08 00:58:24;;;;;;;11.52;2.40;;;;;;;;;;5013273;28;20045;-84
2021/11/08 01:00:51;;;;;;;5.68;2.00;;;;;;;;;;5013470;28;20053;-84
2021/11/08 01:03:20;;;;;;;10.68;1.75;;;;;;;;;;5013481;28;20041;-85
2021/11/08 01:05:47;;;;;;;7.50;1.65;;;;;;;;;;5012600;28;20038;-84
2021/11/08 01:08:13;;;;;;;7.35;1.50;;;;;;;;;;5012530;28;20065;-85
2021/11/08 01:10:39;;;;;;;11.50;1.80;;;;;;;;;;5012528;28;20041;-84
2021/11/08 01:13:05;;;;;;;7.82;1.60;;;;;;;;;;5028938;28;20099;-85
2021/11/08 01:15:31;;;;;;;15.20;3.63;;;;;;;;;;5035435;28;20045;-85
2021/11/08 01:17:57;;;;;;;14.23;3.55;;;;;;;;;;5015806;28;20132;-84
2021/11/08 01:20:31;;;;;;;13.20;3.08;;;;;;;;;;5012470;28;20091;-83
2021/11/08 01:22:57;;;;;;;15.38;4.53;;;;;;;;;;5028954;28;20516;-84
2021/11/08 01:25:23;;;;;;;14.60;3.28;;;;;;;;;;5012425;28;20049;-84
2021/11/08 01:27:54;;;;;;;13.65;3.60;;;;;;;;;;5012303;28;20057;-85
2021/11/08 01:30:23;;;;;;;15.30;3.75;;;;;;;;;;5017248;28;20041;-86
2021/11/08 01:35:28;;;;;;;11.95;3.63;;;;;;;;;;5035087;28;20078;-85
2021/11/08 01:38:03;;;;;;;12.50;4.05;;;;;;;;;;5030198;28;20060;-84
2021/11/08 01:40:30;;;;;;;13.02;3.13;;;;;;;;;;5028917;28;20110;-84
2021/11/08 01:42:56;;;;;;;15.50;3.47;;;;;;;;;;5012489;28;20107;-84
2021/11/08 01:45:22;;;;;;;14.23;3.05;;;;;;;;;;5017549;28;20046;-84
2021/11/08 01:47:48;;;;;;;10.38;2.92;;;;;;;;;;5028754;28;20575;-84
2021/11/08 01:50:14;;;;;;;7.68;1.92;;;;;;;;;;5029054;28;20037;-84
2021/11/08 01:52:40;;;;;;;7.32;1.98;;;;;;;;;;5011514;28;20045;-85
2021/11/08 01:55:07;;;;;;;11.85;2.13;;;;;;;;;;5036112;28;20136;-85
2021/11/08 01:57:33;;;;;;;9.60;2.00;;;;;;;;;;5032293;28;20107;-85
2021/11/08 02:00:00;;;;;;;10.73;3.00;;;;;;;;;;5029058;28;20092;-84
2021/11/08 02:02:27;;;;;;;11.18;2.10;;;;;;;;;;5028442;28;20115;-84
2021/11/08 02:04:53;;;;;;;10.80;2.17;;;;;;;;;;5012868;28;20397;-84
2021/11/08 02:07:19;;;;;;;10.05;1.70;;;;;;;;;;5011805;28;20535;-85
2021/11/08 02:09:45;;;;;;;13.45;2.60;;;;;;;;;;5028384;28;20037;-85
2021/11/08 02:12:12;;;;;;;9.90;2.20;;;;;;;;;;5012572;28;20076;-84
2021/11/08 02:14:40;;;;;;;11.25;2.00;;;;;;;;;;5014735;28;20053;-84
2021/11/08 02:17:06;;;;;;;11.13;1.70;;;;;;;;;;5012305;28;20110;-84
2021/11/08 02:19:33;;;;;;;8.15;1.40;;;;;;;;;;5011626;28;20056;-85
2021/11/08 02:22:01;;;;;;;10.10;1.75;;;;;;;;;;5011949;28;20449;-84
2021/11/08 02:24:28;;;;;;;13.18;1.60;;;;;;;;;;5028256;28;20045;-84
2021/11/08 02:26:55;;;;;;;12.40;1.83;;;;;;;;;;5008964;28;20513;-86
2021/11/08 02:29:21;;;;;;;12.98;1.88;;;;;;;;;;4992573;28;20046;-86
2021/11/08 02:31:49;;;;;;;11.32;2.42;;;;;;;;;;5019217;28;20050;-85
2021/11/08 02:34:16;;;;;;;17.83;2.45;;;;;;;;;;5013155;28;20056;-85
2021/11/08 02:36:42;;;;;;;13.30;2.22;;;;;;;;;;5014921;28;20045;-84
2021/11/08 02:40:00;;;;;;;12.57;2.20;;;;;;;;;;5031552;28;20047;-84
2021/11/08 02:42:07;;;;;;;10.98;1.85;;;;;;;;;;5021986;28;20060;-85
2021/11/08 02:44:33;;;;;;;11.85;2.03;;;;;;;;;;5035173;28;20067;-85
2021/11/08 02:47:00;;;;;;;10.77;1.90;;;;;;;;;;5018820;28;20045;-86
2021/11/08 02:49:28;;;;;;;9.55;1.65;;;;;;;;;;5028940;28;20412;-84
2021/11/08 02:52:04;;;;;;;14.48;2.30;;;;;;;;;;5030934;28;20045;-85
2021/11/08 02:54:36;;;;;;;13.40;1.90;;;;;;;;;;5038610;28;20511;-85
2021/11/08 02:57:03;;;;;;;11.45;2.20;;;;;;;;;;5018117;28;20052;-84
2021/11/08 02:59:31;;;;;;;13.55;2.42;;;;;;;;;;5030367;28;20052;-84
2021/11/08 03:01:58;;;;;;;10.82;1.70;;;;;;;;;;5014593;28;20041;-85
2021/11/08 03:04:28;;;;;;;11.07;2.00;;;;;;;;;;5013553;28;20128;-86
2021/11/08 03:06:55;;;;;;;12.43;1.98;;;;;;;;;;5014044;28;20053;-84
2021/11/08 03:09:23;;;;;;;11.85;2.10;;;;;;;;;;5030440;28;20100;-84
2021/11/08 03:11:49;;;;;;;9.38;1.52;;;;;;;;;;5030751;28;20048;-84
2021/11/08 03:14:21;;;;;;;9.15;1.55;;;;;;;;;;5038639;28;20036;-85
2021/11/08 03:16:55;;;;;;;9.52;1.35;;;;;;;;;;5022244;28;20057;-83
2021/11/08 03:19:36;;;;;;;;;;;;;;;;;;;;;
2021/11/08 03:21:52;;;;;;;8.82;1.50;;;;;;;;;;5030071;28;20416;-84
2021/11/08 03:24:36;;;;;;;10.18;1.52;;;;;;;;;;5014041;28;20436;-85
2021/11/08 03:27:07;;;;;;;9.18;1.50;;;;;;;;;;5030479;28;20107;-84
2021/11/08 03:29:33;;;;;;;8.98;1.98;;;;;;;;;;5013444;28;20053;-85
2021/11/08 03:32:00;;;;;;;8.10;1.50;;;;;;;;;;5013827;28;20049;-84
2021/11/08 03:34:29;;;;;;;8.13;1.30;;;;;;;;;;5034731;28;20045;-85
2021/11/08 03:36:56;;;;;;;9.63;1.80;;;;;;;;;;5019608;28;20083;-85
2021/11/08 03:39:23;;;;;;;7.82;1.55;;;;;;;;;;5013242;28;20089;-86
2021/11/08 03:41:50;;;;;;;8.73;1.55;;;;;;;;;;5029953;28;20692;-85
2021/11/08 03:44:16;;;;;;;9.43;1.65;;;;;;;;;;5029862;28;20072;-84
2021/11/08 03:46:42;;;;;;;9.38;2.00;;;;;;;;;;5029833;28;20660;-83
2021/11/08 03:49:09;;;;;;;9.52;1.80;;;;;;;;;;4973098;28;1191535;-84
2021/11/08 03:51:35;;;;;;;9.48;1.30;;;;;;;;;;5018618;28;20079;-84
2021/11/08 03:54:03;;;;;;;9.68;1.50;;;;;;;;;;5014412;28;20038;-84
2021/11/08 03:56:29;;;;;;;7.97;1.90;;;;;;;;;;5030314;28;20049;-85
2021/11/08 03:58:56;;;;;;;8.68;1.70;;;;;;;;;;5014229;28;20400;-84
2021/11/08 04:01:22;;;;;;;8.23;1.60;;;;;;;;;;5014423;28;20076;-84
2021/11/08 04:03:48;;;;;;;10.65;1.38;;;;;;;;;;5015851;28;20033;-84
2021/11/08 04:06:15;;;;;;;6.30;1.55;;;;;;;;;;5014329;28;20456;-84
2021/11/08 04:08:41;;;;;;;10.95;1.65;;;;;;;;;;5014330;28;20042;-84
2021/11/08 04:11:08;;;;;;;12.68;1.40;;;;;;;;;;5014183;28;20045;-85
2021/11/08 04:13:40;;;;;;;9.63;1.75;;;;;;;;;;5013217;28;20049;-85
2021/11/08 04:16:08;;;;;;;8.77;1.63;;;;;;;;;;5014083;28;20506;-85
2021/11/08 04:18:34;;;;;;;6.82;1.40;;;;;;;;;;5030066;28;20132;-85
2021/11/08 04:21:02;;;;;;;7.10;1.70;;;;;;;;;;5019076;28;20046;-85
2021/11/08 04:23:28;;;;;;;8.02;1.40;;;;;;;;;;5013854;28;20057;-85
2021/11/08 04:25:56;;;;;;;8.80;1.92;;;;;;;;;;5013821;28;20049;-84
2021/11/08 04:28:23;;;;;;;9.43;3.10;;;;;;;;;;5013563;28;20052;-84
2021/11/08 04:30:50;;;;;;;13.07;3.45;;;;;;;;;;5029803;28;20536;-84
2021/11/08 04:41:28;;;;;;;9.55;2.38;;;;;;;;;;5029511;28;20501;-84
2021/11/08 04:44:05;;;;;;;5.85;1.58;;;;;;;;;;5013964;28;20417;-85
2021/11/08 04:54:08;;;;;;;12.57;2.53;;;;;;;;;;5030122;28;20049;-86
2021/11/08 04:57:04;;;;;;;13.90;2.30;;;;;;;;;;5012927;28;20045;-85
2021/11/08 05:24:16;;;;;;;;;;;;;;;;;;5029422;28;20045;-84
2021/11/08 05:31:56;;;;;;;16.45;4.07;;;;;;;;;;5045266;28;20041;-85
2021/11/08 05:34:23;;;;;;;15.65;3.78;;;;;;;;;;5012374;28;20052;-84
2021/11/08 05:36:49;;;;;;;14.85;3.70;;;;;;;;;;5028246;28;20493;-88
2021/11/08 05:39:15;;;;;;;13.68;3.30;;;;;;;;;;5022221;28;20383;-86
2021/11/08 05:41:42;;;;;;;14.50;3.08;;;;;;;;;;5028432;28;20464;-85
2021/11/08 05:44:09;;;;;;;15.48;3.08;;;;;;;;;;5029387;28;20132;-84
2021/11/08 05:46:35;;;;;;;10.18;2.00;;;;;;;;;;5027983;28;20129;-85
2021/11/08 05:49:02;;;;;;;12.60;2.22;;;;;;;;;;5012397;28;20053;-84
2021/11/08 05:51:28;;;;;;;12.48;1.80;;;;;;;;;;5011935;28;20037;-86
2021/11/08 05:53:54;;;;;;;12.35;2.40;;;;;;;;;;5029006;28;20795;-86
2021/11/08 05:56:36;;;;;;;11.38;2.00;;;;;;;;;;5030123;28;20477;-88
2021/11/08 06:51:18;;;;;;;12.13;2.60;;;;;;;;;;5032496;28;20383;-86
2021/11/08 06:53:47;;;;;;;12.65;2.40;;;;;;;;;;5032262;28;20084;-87
2021/11/08 06:56:13;;;;;;;17.02;2.40;;;;;;;;;;5033038;28;20045;-86
2021/11/08 06:58:41;;;;;;;12.25;1.95;;;;;;;;;;5015826;28;20049;-85
2021/11/08 07:01:07;;;;;;;17.15;2.55;;;;;;;;;;5016242;28;20051;-86
2021/11/08 07:03:33;;;;;;;15.25;3.00;;;;;;;;;;5015965;28;20060;-85
2021/11/08 07:05:59;;;;;;;10.32;2.35;;;;;;;;;;5016094;28;20045;-86
2021/11/08 07:08:25;;;;;;;12.45;2.67;;;;;;;;;;5012626;28;20508;-86
2021/11/08 07:10:51;;;;;;;12.63;2.50;;;;;;;;;;5011793;28;20413;-86
2021/11/08 07:13:17;;;;;;;17.25;4.25;;;;;;;;;;4995806;28;20037;-86
2021/11/08 07:15:43;;;;;;;12.23;2.53;;;;;;;;;;5006558;28;20041;-86
2021/11/08 07:18:09;;;;;;;14.65;2.67;;;;;;;;;;5032333;28;20045;-86
2021/11/08 07:20:36;;;;;;;10.07;1.85;;;;;;;;;;5031504;28;20057;-85
2021/11/08 07:23:02;;;;;;;12.73;2.25;;;;;;;;;;5023334;28;20043;-86
2021/11/08 07:25:28;;;;;;;8.50;1.60;;;;;;;;;;5035549;28;20056;-87
2021/11/08 07:27:54;;;;;;;9.27;1.80;;;;;;;;;;5051597;28;20052;-86
2021/11/08 07:30:21;;;;;;;11.57;2.28;;;;;;;;;;5036543;28;20136;-85
2021/11/08 07:32:47;;;;;;;9.70;2.03;;;;;;;;;;5051179;28;20045;-85
2021/11/08 07:35:14;;;;;;;9.05;1.80;;;;;;;;;;5051913;28;20049;-86
2021/11/08 07:37:40;;;;;;;4.43;1.30;;;;;;;;;;5045523;28;20049;-85
2021/11/08 07:40:06;;;;;;;7.95;1.50;;;;;;;;;;5015090;28;20400;-86
2021/11/08 07:42:32;;;;;;;8.95;1.90;;;;;;;;;;5021474;28;20599;-86
2021/11/08 07:44:58;;;;;;;7.57;1.70;;;;;;;;;;5035417;28;20135;-85
2021/11/08 07:47:24;;;;;;;6.55;1.60;;;;;;;;;;5051713;28;20106;-87
2021/11/08 07:49:50;;;;;;;4.80;1.30;;;;;;;;;;5034622;28;20052;-85
2021/11/08 07:52:17;;;;;;;8.68;1.50;;;;;;;;;;5034958;28;20037;-86
2021/11/08 07:54:43;;;;;;;11.20;1.58;;;;;;;;;;5034559;28;20063;-86
2021/11/08 07:57:09;;;;;;;11.05;1.98;;;;;;;;;;5034649;28;20045;-85
2021/11/08 07:59:35;;;;;;;9.75;1.70;;;;;;;;;;5050855;28;20423;-86
2021/11/08 08:02:03;;;;;;;6.60;1.30;;;;;;;;;;5045983;28;20053;-85
2021/11/08 08:04:29;;;;;;;9.90;1.83;;;;;;;;;;5011880;28;20050;-87
2021/11/08 08:06:55;;;;;;;9.20;1.55;;;;;;;;;;4995570;28;20497;-86
2021/11/08 08:09:22;;;;;;;11.77;2.63;;;;;;;;;;4995590;28;20042;-86
2021/11/08 08:11:49;;;;;;;14.43;2.38;;;;;;;;;;5013854;28;20783;-86
2021/11/08 08:14:16;;;;;;;8.30;1.58;;;;;;;;;;5014994;28;20050;-86
2021/11/08 08:16:42;;;;;;;10.23;1.80;;;;;;;;;;5014148;28;20049;-86
2021/11/08 08:19:09;;;;;;;8.38;1.70;;;;;;;;;;5015013;28;20485;-86
2021/11/08 08:21:35;;;;;;;15.20;2.17;;;;;;;;;;5018089;28;20037;-86
2021/11/08 08:24:02;;;;;;;12.80;2.10;;;;;;;;;;5034439;28;20087;-85
2021/11/08 08:26:34;;;;;;;11.70;2.20;;;;;;;;;;5051040;28;20507;-85
2021/11/08 08:29:05;;;;;;;10.30;2.28;;;;;;;;;;5050935;28;20090;-85
2021/11/08 08:31:31;;;;;;;9.55;1.52;;;;;;;;;;5033830;28;20052;-88
2021/11/08 08:33:58;;;;;;;8.02;1.90;;;;;;;;;;5026934;28;20397;-86
2021/11/08 08:36:24;;;;;;;6.97;1.50;;;;;;;;;;5014574;28;20108;-85
2021/11/08 08:38:50;;;;;;;8.20;1.45;;;;;;;;;;5027950;28;20060;-85
2021/11/08 08:41:17;;;;;;;7.40;2.00;;;;;;;;;;5034381;28;20099;-84
2021/11/08 08:43:43;;;;;;;6.80;1.25;;;;;;;;;;5038355;28;20045;-87
2021/11/08 08:46:09;;;;;;;5.18;1.23;;;;;;;;;;5028636;28;20602;-85
2021/11/08 08:48:35;;;;;;;7.72;1.40;;;;;;;;;;5028707;28;20049;-84
2021/11/08 08:51:03;;;;;;;7.82;1.52;;;;;;;;;;5029033;28;20111;-84
2021/11/08 08:53:29;;;;;;;10.65;1.55;;;;;;;;;;5012663;28;20473;-85
2021/11/08 08:55:55;;;;;;;8.52;1.70;;;;;;;;;;5025907;28;20053;-85
2021/11/08 08:58:22;;;;;;;11.82;1.75;;;;;;;;;;5009490;28;20052;-85
2021/11/08 09:00:49;;;;;;;10.35;1.50;;;;;;;;;;5012448;28;20549;-85
2021/11/08 09:03:16;;;;;;;10.80;1.80;;;;;;;;;;5012593;28;20037;-85
2021/11/08 09:05:42;;;;;;;8.52;1.95;;;;;;;;;;5011823;28;20049;-86
2021/11/08 09:08:09;;;;;;;10.60;2.20;;;;;;;;;;5011332;28;20095;-87
2021/11/08 09:10:35;;;;;;;12.70;2.45;;;;;;;;;;5029826;28;20445;-89
2021/11/08 09:13:02;;;;;;;17.50;2.53;;;;;;;;;;5030441;28;20064;-89
2021/11/08 09:15:29;;;;;;;10.85;1.90;;;;;;;;;;5031017;28;20130;-87
2021/11/08 09:17:55;;;;;;;15.00;2.53;;;;;;;;;;4994377;28;20049;-88
2021/11/08 09:20:22;;;;;;;11.70;2.63;;;;;;;;;;4994183;28;20140;-87
2021/11/08 09:22:50;;;;;;;10.63;1.92;;;;;;;;;;5003702;28;20038;-90
2021/11/08 09:25:17;;;;;;;8.63;2.05;;;;;;;;;;4994209;28;20050;-88
2021/11/08 09:27:44;;;;;;;12.00;2.22;;;;;;;;;;4993850;28;20053;-87
2021/11/08 09:30:11;;;;;;;11.90;2.10;;;;;;;;;;4999902;28;20096;-87
2021/11/08 09:32:37;;;;;;;14.27;2.40;;;;;;;;;;5029893;28;20048;-88
2021/11/08 09:35:05;;;;;;;10.38;2.13;;;;;;;;;;5030577;28;20048;-88
2021/11/08 09:37:33;;;;;;;12.63;2.40;;;;;;;;;;5014125;28;20093;-88
2021/11/08 09:40:00;;;;;;;12.38;1.88;;;;;;;;;;5032263;28;20105;-90
2021/11/08 09:42:27;;;;;;;7.18;1.55;;;;;;;;;;5051028;28;20048;-89
2021/11/08 09:44:53;;;;;;;10.65;1.83;;;;;;;;;;5033713;28;20095;-88
2021/11/08 09:47:19;;;;;;;9.27;1.70;;;;;;;;;;5050694;28;20041;-89
2021/11/08 09:49:51;;;;;;;9.05;1.42;;;;;;;;;;5049921;28;20053;-88
2021/11/08 09:52:17;;;;;;;12.50;1.85;;;;;;;;;;5034176;28;20500;-89
2021/11/08 09:54:44;;;;;;;12.40;2.42;;;;;;;;;;5033277;28;20053;-89
2021/11/08 09:57:11;;;;;;;12.32;1.85;;;;;;;;;;5033632;28;20269;-89
2021/11/08 09:59:37;;;;;;;15.30;2.28;;;;;;;;;;5024707;28;20041;-87
2021/11/08 10:02:09;;;;;;;12.77;1.88;;;;;;;;;;5013852;28;20091;-86
2021/11/08 10:04:35;;;;;;;13.20;1.90;;;;;;;;;;5013048;28;20046;-88
2021/11/08 10:07:02;;;;;;;13.57;2.47;;;;;;;;;;5030258;28;20068;-87
2021/11/08 10:09:28;;;;;;;12.98;2.03;;;;;;;;;;5030148;28;20049;-87
2021/11/08 10:11:54;;;;;;;13.15;2.20;;;;;;;;;;5040231;28;20164;-86
2021/11/08 10:14:20;;;;;;;10.88;1.88;;;;;;;;;;5049850;28;20041;-86
2021/11/08 10:16:48;;;;;;;10.50;1.67;;;;;;;;;;5016586;28;20045;-86
2021/11/08 10:19:21;;;;;;;9.07;2.10;;;;;;;;;;5032924;28;20041;-86
2021/11/08 10:21:50;;;;;;;11.07;1.95;;;;;;;;;;5033077;28;20449;-86
2021/11/08 10:24:18;;;;;;;8.30;1.80;;;;;;;;;;5033433;28;20443;-87
2021/11/08 10:26:45;;;;;;;9.82;2.00;;;;;;;;;;5040729;28;20042;-86
2021/11/08 10:29:12;;;;;;;10.13;1.90;;;;;;;;;;5013825;28;20333;-86
2021/11/08 10:31:41;;;;;;;7.13;1.60;;;;;;;;;;5029570;28;20136;-87
2021/11/08 10:34:09;;;;;;;8.50;2.72;;;;;;;;;;5013325;28;20041;-86
2021/11/08 10:36:36;;;;;;;7.82;2.42;;;;;;;;;;5011059;28;20684;-88
2021/11/08 10:39:05;;;;;;;4.35;1.67;;;;;;;;;;5027069;28;20061;-86
2021/11/08 10:41:33;;;;;;;5.93;1.80;;;;;;;;;;5012964;28;20067;-86
2021/11/08 10:44:06;;;;;;;8.95;1.65;;;;;;;;;;5026104;28;20057;-86
2021/11/08 10:46:37;;;;;;;5.85;1.92;;;;;;;;;;5022891;28;20048;-86
2021/11/08 10:49:05;;;;;;;5.38;1.08;;;;;;;;;;5031980;28;20060;-88
2021/11/08 10:51:32;;;;;;;5.57;0.93;;;;;;;;;;5049621;28;20045;-87
2021/11/08 10:54:00;;;;;;;6.13;1.40;;;;;;;;;;5048586;28;20049;-86
2021/11/08 10:56:46;;;;;;;6.78;1.40;;;;;;;;;;5030734;28;20049;-86
2021/11/08 10:59:17;;;;;;;7.22;1.30;;;;;;;;;;5016887;28;20107;-86
2021/11/08 11:01:51;;;;;;;7.90;1.50;;;;;;;;;;5016012;28;20050;-87
2021/11/08 11:04:18;;;;;;;8.97;1.60;;;;;;;;;;5033256;28;20080;-86
2021/11/08 11:06:47;;;;;;;7.95;1.30;;;;;;;;;;5032324;28;20342;-86
2021/11/08 11:09:27;;;;;;;11.93;1.90;;;;;;;;;;5015837;28;20064;-87
2021/11/08 11:12:08;;;;;;;10.48;2.05;;;;;;;;;;5015859;28;20057;-87
2021/11/08 11:14:39;;;;;;;13.07;2.33;;;;;;;;;;5033017;28;20091;-89
2021/11/08 11:17:07;;;;;;;14.30;2.85;;;;;;;;;;5017677;28;20049;-90
2021/11/08 11:19:33;;;;;;;13.55;1.67;;;;;;;;;;5017270;28;20136;-88
2021/11/08 11:22:03;;;;;;;13.50;2.28;;;;;;;;;;5017168;28;20079;-88
2021/11/08 11:24:47;;;;;;;14.57;2.72;;;;;;;;;;5017270;28;20430;-87
2021/11/08 11:27:30;;;;;;;11.77;2.25;;;;;;;;;;5019004;28;20053;-88
2021/11/08 11:30:16;;;;;;;16.23;2.97;;;;;;;;;;5016543;28;20200;-88
2021/11/08 11:32:43;;;;;;;13.35;2.25;;;;;;;;;;5030473;28;20107;-87
2021/11/08 11:35:20;;;;;;;13.13;2.05;;;;;;;;;;5033399;28;20060;-88
2021/11/08 11:38:06;;;;;;;15.40;2.50;;;;;;;;;;5016701;28;20049;-89
2021/11/08 11:40:35;;;;;;;14.25;2.58;;;;;;;;;;5033409;28;20049;-91
2021/11/08 11:43:04;;;;;;;10.85;1.90;;;;;;;;;;5033261;28;20144;-90
2021/11/08 11:45:42;;;;;;;15.27;2.28;;;;;;;;;;5033404;28;20103;-89
2021/11/08 11:48:08;;;;;;;12.60;2.35;;;;;;;;;;5030848;28;20089;-88
2021/11/08 11:50:35;;;;;;;12.60;2.42;;;;;;;;;;5016631;28;20056;-89
2021/11/08 11:53:02;;;;;;;15.38;2.25;;;;;;;;;;5016547;28;20047;-88
2021/11/08 11:55:29;;;;;;;11.50;1.77;;;;;;;;;;5016673;28;20393;-91
2021/11/08 11:57:56;;;;;;;10.25;1.95;;;;;;;;;;5016062;28;20049;-88
2021/11/08 12:00:24;;;;;;;13.90;2.05;;;;;;;;;;5031998;28;20091;-85
2021/11/08 12:02:51;;;;;;;10.65;2.55;;;;;;;;;;5030849;28;20603;-85
2021/11/08 12:05:17;;;;;;;12.77;2.08;;;;;;;;;;5031544;28;20049;-85
2021/11/08 12:07:44;;;;;;;9.57;2.20;;;;;;;;;;5029399;28;20057;-85
2021/11/08 12:10:10;;;;;;;10.23;2.30;;;;;;;;;;5031035;28;20053;-84
2021/11/08 12:12:37;;;;;;;13.68;2.30;;;;;;;;;;5013910;28;20245;-87
2021/11/08 12:15:08;;;;;;;13.93;2.33;;;;;;;;;;5030795;28;20079;-85
2021/11/08 12:17:41;;;;;;;14.27;2.40;;;;;;;;;;5045938;28;20044;-86
2021/11/08 12:20:24;;;;;;;11.10;2.13;;;;;;;;;;5052490;28;20053;-86
2021/11/08 12:22:50;;;;;;;14.18;2.25;;;;;;;;;;5052167;28;20465;-85
2021/11/08 12:25:21;;;;;;;12.02;1.95;;;;;;;;;;5035122;28;20513;-86
2021/11/08 12:27:52;;;;;;;8.88;1.67;;;;;;;;;;5035196;28;20370;-85
2021/11/08 12:30:26;;;;;;;12.23;1.92;;;;;;;;;;5035306;28;20053;-85
2021/11/08 12:32:57;;;;;;;11.40;1.90;;;;;;;;;;5034880;28;20408;-87
2021/11/08 12:35:29;;;;;;;12.23;2.10;;;;;;;;;;5051873;28;20086;-85
2021/11/08 12:37:55;;;;;;;9.75;1.40;;;;;;;;;;5016775;28;20053;-89
2021/11/08 12:40:23;;;;;;;9.45;1.80;;;;;;;;;;5036357;28;20044;-91
2021/11/08 12:42:53;;;;;;;5.63;1.35;;;;;;;;;;5036298;28;20496;-90
2021/11/08 12:45:26;;;;;;;9.25;1.67;;;;;;;;;;5036429;28;20133;-94
2021/11/08 12:48:01;;;;;;;9.95;2.13;;;;;;;;;;5036755;28;20114;-92
2021/11/08 12:50:37;;;;;;;5.65;1.30;;;;;;;;;;5052981;28;20130;-91
2021/11/08 12:53:03;;;;;;;6.18;1.23;;;;;;;;;;5035066;28;20053;-90
2021/11/08 12:55:38;;;;;;;6.97;1.20;;;;;;;;;;5049729;28;20064;-85
2021/11/08 12:58:06;;;;;;;4.85;1.08;;;;;;;;;;5038503;28;20445;-85
2021/11/08 13:00:37;;;;;;;5.40;1.05;;;;;;;;;;5015180;28;20057;-89
2021/11/08 13:03:11;;;;;;;9.90;1.65;;;;;;;;;;5032220;28;20049;-89
2021/11/08 13:05:39;;;;;;;7.57;1.10;;;;;;;;;;5015314;28;20049;-91
2021/11/08 13:08:16;;;;;;;7.60;1.77;;;;;;;;;;5031321;28;20041;-86
2021/11/08 13:10:42;;;;;;;5.88;1.55;;;;;;;;;;5015470;28;20056;-86
2021/11/08 13:13:19;;;;;;;7.10;1.58;;;;;;;;;;5015412;28;20041;-86
2021/11/08 13:15:45;;;;;;;8.75;1.50;;;;;;;;;;5030856;28;20422;-89
2021/11/08 13:18:11;;;;;;;8.65;1.60;;;;;;;;;;5015599;28;20049;-89
2021/11/08 13:20:39;;;;;;;7.07;1.30;;;;;;;;;;5032568;28;20067;-87
2021/11/08 13:23:08;;;;;;;5.47;1.13;;;;;;;;;;5032297;28;20077;-87
2021/11/08 13:25:36;;;;;;;6.97;1.30;;;;;;;;;;5016170;28;20409;-88
2021/11/08 13:28:10;;;;;;;8.18;1.05;;;;;;;;;;5016508;28;20102;-88
2021/11/08 13:30:37;;;;;;;6.47;1.20;;;;;;;;;;5016184;28;20088;-89
2021/11/08 13:33:05;;;;;;;5.35;1.00;;;;;;;;;;5032721;28;20096;-89
2021/11/08 13:35:32;;;;;;;6.10;1.05;;;;;;;;;;5032465;28;20048;-89
2021/11/08 13:38:06;;;;;;;5.25;1.35;;;;;;;;;;5014827;28;20056;-88
2021/11/08 13:40:33;;;;;;;4.82;0.90;;;;;;;;;;5016204;28;20053;-92
2021/11/08 13:43:07;;;;;;;4.88;0.90;;;;;;;;;;5014701;28;20223;-88
2021/11/08 13:45:51;;;;;;;4.55;0.93;;;;;;;;;;5015762;28;20758;-88
2021/11/08 13:48:21;;;;;;;7.25;1.50;;;;;;;;;;5031200;28;20550;-89
2021/11/08 13:50:47;;;;;;;7.80;1.20;;;;;;;;;;5014694;28;20053;-88
2021/11/08 13:53:17;;;;;;;6.63;1.58;;;;;;;;;;5031060;28;20042;-88
2021/11/08 13:55:44;;;;;;;8.20;1.45;;;;;;;;;;5014098;28;20053;-87
2021/11/08 13:58:10;;;;;;;7.55;1.83;;;;;;;;;;5031540;28;20049;-89
2021/11/08 14:00:36;;;;;;;7.68;1.23;;;;;;;;;;5014310;28;20057;-90
2021/11/08 14:03:15;;;;;;;6.30;1.30;;;;;;;;;;5014245;28;20041;-89
2021/11/08 14:05:52;;;;;;;7.32;1.15;;;;;;;;;;5031032;28;20119;-91
2021/11/08 14:08:22;;;;;;;8.30;1.55;;;;;;;;;;5015091;28;20053;-89
2021/11/08 14:10:56;;;;;;;5.07;1.55;;;;;;;;;;5030550;28;20053;-88
2021/11/08 14:13:29;;;;;;;5.95;1.30;;;;;;;;;;5014396;28;20057;-89
2021/11/08 14:15:59;;;;;;;6.53;1.13;;;;;;;;;;5017616;28;20109;-87
2021/11/08 14:18:25;;;;;;;8.15;1.20;;;;;;;;;;5022214;28;20042;-90
2021/11/08 14:21:02;;;;;;;5.80;1.10;;;;;;;;;;5031332;28;20506;-88
2021/11/08 14:23:28;;;;;;;6.18;1.40;;;;;;;;;;5015198;28;20096;-88
2021/11/08 14:25:55;;;;;;;8.25;1.30;;;;;;;;;;5014586;28;20056;-89
2021/11/08 14:28:28;;;;;;;7.97;1.15;;;;;;;;;;5015219;28;20136;-91
2021/11/08 14:30:54;;;;;;;4.68;1.10;;;;;;;;;;5015352;28;20055;-95
2021/11/08 14:33:20;;;;;;;6.00;1.20;;;;;;;;;;5023848;28;20049;-90
2021/11/08 14:35:46;;;;;;;5.93;1.33;;;;;;;;;;5017195;28;20053;-87
2021/11/08 14:38:26;;;;;;;9.02;1.67;;;;;;;;;;5032459;28;20041;-88
2021/11/08 14:40:54;;;;;;;5.90;1.40;;;;;;;;;;5013488;28;20263;-88
2021/11/08 14:43:21;;;;;;;8.30;1.45;;;;;;;;;;4997330;28;20497;-89
2021/11/08 14:45:57;;;;;;;6.03;1.30;;;;;;;;;;5032088;28;20049;-89
2021/11/08 14:48:24;;;;;;;4.07;1.10;;;;;;;;;;5016251;28;20093;-88
2021/11/08 14:50:51;;;;;;;6.22;1.13;;;;;;;;;;5016012;28;20094;-87
2021/11/08 14:53:17;;;;;;;7.25;1.45;;;;;;;;;;5032406;28;20087;-90
2021/11/08 14:55:46;;;;;;;4.95;1.08;;;;;;;;;;5017001;28;20076;-92
2021/11/08 14:58:18;;;;;;;3.10;1.00;;;;;;;;;;5018685;28;20274;-95
2021/11/08 15:00:47;;;;;;;4.38;1.20;;;;;;;;;;5035406;28;20057;-90
2021/11/08 15:03:19;;;;;;;4.93;1.20;;;;;;;;;;5018058;28;20072;-91
2021/11/08 15:05:48;;;;;;;7.65;1.20;;;;;;;;;;5034053;28;20389;-93
2021/11/08 15:08:20;;;;;;;7.15;1.30;;;;;;;;;;5018472;28;20045;-90
2021/11/08 15:10:49;;;;;;;5.53;0.93;;;;;;;;;;5034915;28;20049;-92
2021/11/08 15:13:16;;;;;;;6.00;1.30;;;;;;;;;;5034345;28;20100;-91
2021/11/08 15:15:44;;;;;;;3.72;1.17;;;;;;;;;;5007854;28;20409;-90
2021/11/08 15:18:15;;;;;;;5.70;1.20;;;;;;;;;;4996221;28;20491;-87
2021/11/08 15:20:43;;;;;;;5.25;1.23;;;;;;;;;;5012521;28;20112;-88
2021/11/08 15:23:15;;;;;;;5.53;0.90;;;;;;;;;;4996233;28;20045;-87
2021/11/08 15:25:51;;;;;;;6.10;1.08;;;;;;;;;;5007053;28;20498;-89
2021/11/08 15:28:17;;;;;;;9.88;1.50;;;;;;;;;;5031906;28;20072;-85
2021/11/08 15:30:46;;;;;;;7.70;1.38;;;;;;;;;;5034932;28;20049;-86
2021/11/08 15:33:20;;;;;;;8.75;1.58;;;;;;;;;;5051955;28;20045;-86
2021/11/08 15:35:48;;;;;;;9.45;1.58;;;;;;;;;;5051851;28;20366;-88
2021/11/08 15:38:19;;;;;;;8.13;1.77;;;;;;;;;;5026247;28;20045;-92
2021/11/08 15:44:35;;;;;;;;;;;;;;;;;;;;;
2021/11/08 15:47:52;;;;;;;7.15;1.20;;;;;;;;;;4976148;28;20562;-93
2021/11/08 15:50:45;;;;;;;6.65;1.10;;;;;;;;;;4913900;29;20055;-96
2021/11/08 15:53:12;;;;;;;5.93;1.00;;;;;;;;;;4974789;28;20046;-91
2021/11/08 15:55:39;;;;;;;7.22;1.17;;;;;;;;;;4975571;28;20090;-90
2021/11/08 15:58:06;;;;;;;6.63;1.08;;;;;;;;;;4967698;28;20050;-90
2021/11/08 16:00:34;;;;;;;6.22;1.40;;;;;;;;;;4955459;28;20662;-91
2021/11/08 16:03:00;;;;;;;6.75;1.00;;;;;;;;;;4952219;29;20510;-89
2021/11/08 16:05:26;;;;;;;6.80;1.23;;;;;;;;;;4975206;28;20055;-89
2021/11/08 16:08:11;;;;;;;6.07;2.60;;;;;;;;;;4972737;28;20089;-90
2021/11/08 16:10:38;;;;;;;4.82;0.90;;;;;;;;;;4953173;29;20378;-90
2021/11/08 16:13:04;;;;;;;8.50;1.10;;;;;;;;;;4952867;29;20055;-89
2021/11/08 16:15:31;;;;;;;5.60;1.30;;;;;;;;;;4956267;28;20047;-89
2021/11/08 16:17:57;;;;;;;7.28;1.33;;;;;;;;;;4958865;28;20073;-90
2021/11/08 16:20:26;;;;;;;4.40;1.00;;;;;;;;;;4972541;28;20064;-89
2021/11/08 16:22:53;;;;;;;6.18;1.23;;;;;;;;;;5011619;28;20508;-89
2021/11/08 16:25:20;;;;;;;6.15;1.25;;;;;;;;;;5017839;28;20559;-94
2021/11/08 16:27:46;;;;;;;4.28;1.27;;;;;;;;;;5000717;28;20493;-96
2021/11/08 16:30:17;;;;;;;8.85;1.92;;;;;;;;;;5010169;28;20041;-94
2021/11/08 16:33:02;;;;;;;9.85;1.52;;;;;;;;;;5018544;28;20050;-91
2021/11/08 16:35:29;;;;;;;8.20;2.10;;;;;;;;;;5018875;28;20045;-88
2021/11/08 16:37:56;;;;;;;5.18;1.90;;;;;;;;;;5016113;28;20140;-89